sensor_id;sensor_type;location;lat;lon;timestamp;temperature;humidity
23685;DHT22;12020;51.384;6.908;2024-01-16T00:01:56;2.20;99.90
23685;DHT22;12020;51.384;6.908;2024-01-16T00:04:28;2.00;99.90
23685;DHT22;12020;51.384;6.908;2024-01-16T00:06:56;2.10;99.90
23685;DHT22;12020;51.384;6.908;2024-01-16T00:09:23;2.00;99.90
23685;DHT22;12020;51.384;6.908;2024-01-16T00:11:53;1.90;99.90
23685;DHT22;12020;51.384;6.908;2024-01-16T00:14:22;2.00;99.90
23685;DHT22;12020;51.384;6.908;2024-01-16T00:16:48;1.90;99.90
23685;DHT22;12020;51.384;6.908;2024-01-16T00:19:17;1.90;99.90
23685;DHT22;12020;51.384;6.908;2024-01-16T00:22:04;1.90;99.90
23685;DHT22;12020;51.384;6.908;2024-01-16T00:25:00;1.90;99.90
23685;DHT22;12020;51.384;6.908;2024-01-16T00:27:43;1.90;99.90
23685;DHT22;12020;51.384;6.908;2024-01-16T00:30:23;1.90;99.90
23685;DHT22;12020;51.384;6.908;2024-01-16T00:32:53;1.90;99.90
23685;DHT22;12020;51.384;6.908;2024-01-16T00:35:22;2.20;99.90
23685;DHT22;12020;51.384;6.908;2024-01-16T00:41:40;2.00;99.90
23685;DHT22;12020;51.384;6.908;2024-01-16T00:44:11;2.00;99.90
23685;DHT22;12020;51.384;6.908;2024-01-16T00:49:56;2.00;99.90
23685;DHT22;12020;51.384;6.908;2024-01-16T00:52:23;2.00;99.90
23685;DHT22;12020;51.384;6.908;2024-01-16T01:01:36;2.10;99.90
23685;DHT22;12020;51.384;6.908;2024-01-16T01:14:08;2.10;99.90
23685;DHT22;12020;51.384;6.908;2024-01-16T01:26:31;2.20;99.90
23685;DHT22;12020;51.384;6.908;2024-01-16T01:35:40;2.10;99.90
23685;DHT22;12020;51.384;6.908;2024-01-16T01:38:08;2.30;99.90
23685;DHT22;12020;51.384;6.908;2024-01-16T01:40:56;2.10;99.90
23685;DHT22;12020;51.384;6.908;2024-01-16T01:59:32;2.10;99.90
23685;DHT22;12020;51.384;6.908;2024-01-16T02:02:00;2.10;99.90
23685;DHT22;12020;51.384;6.908;2024-01-16T02:04:34;2.20;99.90
23685;DHT22;12020;51.384;6.908;2024-01-16T02:07:06;2.10;99.90
23685;DHT22;12020;51.384;6.908;2024-01-16T02:09:33;2.10;99.90
23685;DHT22;12020;51.384;6.908;2024-01-16T02:25:33;2.20;99.90
23685;DHT22;12020;51.384;6.908;2024-01-16T02:28:01;2.20;99.90
23685;DHT22;12020;51.384;6.908;2024-01-16T02:46:28;2.20;99.90
23685;DHT22;12020;51.384;6.908;2024-01-16T02:52:37;2.20;99.90
23685;DHT22;12020;51.384;6.908;2024-01-16T03:05:48;2.10;99.90
23685;DHT22;12020;51.384;6.908;2024-01-16T03:37:39;2.10;99.90
23685;DHT22;12020;51.384;6.908;2024-01-16T03:40:06;2.10;99.90
23685;DHT22;12020;51.384;6.908;2024-01-16T03:42:32;2.10;99.90
23685;DHT22;12020;51.384;6.908;2024-01-16T03:57:39;2.10;99.90
23685;DHT22;12020;51.384;6.908;2024-01-16T04:06:29;2.10;99.90
23685;DHT22;12020;51.384;6.908;2024-01-16T04:08:58;2.10;99.90
23685;DHT22;12020;51.384;6.908;2024-01-16T04:11:36;2.30;99.90
23685;DHT22;12020;51.384;6.908;2024-01-16T04:16:37;2.10;99.90
23685;DHT22;12020;51.384;6.908;2024-01-16T04:19:04;2.10;99.90
23685;DHT22;12020;51.384;6.908;2024-01-16T04:21:30;2.20;99.90
23685;DHT22;12020;51.384;6.908;2024-01-16T04:23:59;2.20;99.90
23685;DHT22;12020;51.384;6.908;2024-01-16T04:33:36;2.20;99.90
23685;DHT22;12020;51.384;6.908;2024-01-16T04:39:24;2.10;99.90
23685;DHT22;12020;51.384;6.908;2024-01-16T04:41:53;2.10;99.90
23685;DHT22;12020;51.384;6.908;2024-01-16T04:54:47;2.20;99.90
23685;DHT22;12020;51.384;6.908;2024-01-16T05:03:58;2.20;99.90
23685;DHT22;12020;51.384;6.908;2024-01-16T05:06:37;2.30;99.90
23685;DHT22;12020;51.384;6.908;2024-01-16T05:09:11;2.30;99.90
23685;DHT22;12020;51.384;6.908;2024-01-16T05:11:44;2.20;99.90
23685;DHT22;12020;51.384;6.908;2024-01-16T05:14:27;2.20;99.90
23685;DHT22;12020;51.384;6.908;2024-01-16T05:16:53;2.20;99.90
23685;DHT22;12020;51.384;6.908;2024-01-16T05:36:28;2.10;99.90
23685;DHT22;12020;51.384;6.908;2024-01-16T05:38:58;2.10;99.90
23685;DHT22;12020;51.384;6.908;2024-01-16T05:41:26;2.10;99.90
23685;DHT22;12020;51.384;6.908;2024-01-16T05:43:56;2.40;99.90
23685;DHT22;12020;51.384;6.908;2024-01-16T06:17:14;2.00;99.90
23685;DHT22;12020;51.384;6.908;2024-01-16T07:00:10;1.70;99.90
23685;DHT22;12020;51.384;6.908;2024-01-16T08:56:26;1.80;99.90
23685;DHT22;12020;51.384;6.908;2024-01-16T09:30:31;1.90;99.90
23685;DHT22;12020;51.384;6.908;2024-01-16T09:32:56;1.60;99.90
23685;DHT22;12020;51.384;6.908;2024-01-16T09:35:24;1.90;99.90
23685;DHT22;12020;51.384;6.908;2024-01-16T09:37:50;2.00;99.90
23685;DHT22;12020;51.384;6.908;2024-01-16T09:40:17;2.10;99.90
23685;DHT22;12020;51.384;6.908;2024-01-16T10:06:50;2.20;99.90
23685;DHT22;12020;51.384;6.908;2024-01-16T10:12:25;2.30;99.90
23685;DHT22;12020;51.384;6.908;2024-01-16T10:20:56;2.30;99.90
23685;DHT22;12020;51.384;6.908;2024-01-16T10:23:31;2.30;99.90
23685;DHT22;12020;51.384;6.908;2024-01-16T10:26:09;2.30;99.90
23685;DHT22;12020;51.384;6.908;2024-01-16T10:28:37;2.30;99.90
23685;DHT22;12020;51.384;6.908;2024-01-16T10:31:25;2.30;99.90
23685;DHT22;12020;51.384;6.908;2024-01-16T10:33:55;2.30;99.90
23685;DHT22;12020;51.384;6.908;2024-01-16T10:36:23;2.30;99.90
23685;DHT22;12020;51.384;6.908;2024-01-16T10:48:15;2.60;99.90
23685;DHT22;12020;51.384;6.908;2024-01-16T10:50:41;2.60;99.90
23685;DHT22;12020;51.384;6.908;2024-01-16T10:53:10;2.50;99.90
23685;DHT22;12020;51.384;6.908;2024-01-16T10:55:57;2.60;99.90
23685;DHT22;12020;51.384;6.908;2024-01-16T10:58:25;2.70;99.90
23685;DHT22;12020;51.384;6.908;2024-01-16T11:01:00;2.70;99.90
23685;DHT22;12020;51.384;6.908;2024-01-16T11:03:35;2.90;99.90
23685;DHT22;12020;51.384;6.908;2024-01-16T11:06:05;2.90;99.90
23685;DHT22;12020;51.384;6.908;2024-01-16T11:08:32;2.90;99.90
23685;DHT22;12020;51.384;6.908;2024-01-16T11:11:09;2.90;99.90
23685;DHT22;12020;51.384;6.908;2024-01-16T11:13:36;2.90;99.90
23685;DHT22;12020;51.384;6.908;2024-01-16T11:16:12;2.90;99.90
23685;DHT22;12020;51.384;6.908;2024-01-16T11:18:39;3.00;99.90
23685;DHT22;12020;51.384;6.908;2024-01-16T11:21:12;3.00;99.90
23685;DHT22;12020;51.384;6.908;2024-01-16T11:23:38;3.00;99.90
23685;DHT22;12020;51.384;6.908;2024-01-16T11:31:57;3.10;99.90
23685;DHT22;12020;51.384;6.908;2024-01-16T11:34:56;3.00;99.90
23685;DHT22;12020;51.384;6.908;2024-01-16T11:37:30;3.00;99.90
23685;DHT22;12020;51.384;6.908;2024-01-16T11:46:59;2.90;99.90
23685;DHT22;12020;51.384;6.908;2024-01-16T11:49:25;3.20;99.90
23685;DHT22;12020;51.384;6.908;2024-01-16T11:51:54;3.00;99.90
23685;DHT22;12020;51.384;6.908;2024-01-16T11:54:21;3.10;99.90
23685;DHT22;12020;51.384;6.908;2024-01-16T12:02:50;3.20;99.90
23685;DHT22;12020;51.384;6.908;2024-01-16T12:05:18;3.30;99.90
23685;DHT22;12020;51.384;6.908;2024-01-16T12:07:48;3.30;99.90
23685;DHT22;12020;51.384;6.908;2024-01-16T12:10:34;3.40;99.90
23685;DHT22;12020;51.384;6.908;2024-01-16T12:13:12;3.30;99.90
23685;DHT22;12020;51.384;6.908;2024-01-16T12:16:03;3.40;99.90
23685;DHT22;12020;51.384;6.908;2024-01-16T12:22:09;3.70;99.90
23685;DHT22;12020;51.384;6.908;2024-01-16T12:25:01;3.70;99.90
23685;DHT22;12020;51.384;6.908;2024-01-16T12:27:55;3.60;99.90
23685;DHT22;12020;51.384;6.908;2024-01-16T12:33:48;3.50;99.90
23685;DHT22;12020;51.384;6.908;2024-01-16T12:36:17;3.50;99.90
23685;DHT22;12020;51.384;6.908;2024-01-16T12:38:57;3.50;99.90
23685;DHT22;12020;51.384;6.908;2024-01-16T12:41:25;3.40;99.90
23685;DHT22;12020;51.384;6.908;2024-01-16T12:52:28;3.50;99.90
23685;DHT22;12020;51.384;6.908;2024-01-16T12:58:23;3.30;99.90
23685;DHT22;12020;51.384;6.908;2024-01-16T13:00:55;3.40;99.90
23685;DHT22;12020;51.384;6.908;2024-01-16T13:03:51;3.40;99.90
23685;DHT22;12020;51.384;6.908;2024-01-16T13:09:44;3.30;99.90
23685;DHT22;12020;51.384;6.908;2024-01-16T13:12:20;3.30;99.90
23685;DHT22;12020;51.384;6.908;2024-01-16T13:14:47;3.40;99.90
23685;DHT22;12020;51.384;6.908;2024-01-16T13:19:56;3.30;99.90
23685;DHT22;12020;51.384;6.908;2024-01-16T13:22:23;3.20;99.90
23685;DHT22;12020;51.384;6.908;2024-01-16T13:25:10;3.20;99.90
23685;DHT22;12020;51.384;6.908;2024-01-16T13:27:52;3.20;99.90
23685;DHT22;12020;51.384;6.908;2024-01-16T13:30:24;3.20;99.90
23685;DHT22;12020;51.384;6.908;2024-01-16T13:32:50;3.40;99.90
23685;DHT22;12020;51.384;6.908;2024-01-16T13:35:15;3.60;99.90
23685;DHT22;12020;51.384;6.908;2024-01-16T13:37:43;3.70;99.90
23685;DHT22;12020;51.384;6.908;2024-01-16T13:40:10;3.70;99.90
23685;DHT22;12020;51.384;6.908;2024-01-16T13:42:44;3.70;99.90
23685;DHT22;12020;51.384;6.908;2024-01-16T13:45:09;3.70;99.90
23685;DHT22;12020;51.384;6.908;2024-01-16T13:47:35;3.60;99.90
23685;DHT22;12020;51.384;6.908;2024-01-16T13:50:06;3.70;99.90
23685;DHT22;12020;51.384;6.908;2024-01-16T13:52:33;3.60;99.90
23685;DHT22;12020;51.384;6.908;2024-01-16T13:55:00;3.50;99.90
23685;DHT22;12020;51.384;6.908;2024-01-16T13:57:31;3.50;99.90
23685;DHT22;12020;51.384;6.908;2024-01-16T13:59:58;3.50;99.90
23685;DHT22;12020;51.384;6.908;2024-01-16T14:02:30;3.40;99.90
23685;DHT22;12020;51.384;6.908;2024-01-16T14:04:56;3.50;99.90
23685;DHT22;12020;51.384;6.908;2024-01-16T14:07:23;3.50;99.90
23685;DHT22;12020;51.384;6.908;2024-01-16T14:09:49;3.40;99.90
23685;DHT22;12020;51.384;6.908;2024-01-16T14:12:16;3.30;99.90
23685;DHT22;12020;51.384;6.908;2024-01-16T14:14:45;3.20;99.90
23685;DHT22;12020;51.384;6.908;2024-01-16T14:17:14;3.20;99.90
23685;DHT22;12020;51.384;6.908;2024-01-16T14:19:41;3.40;99.90
23685;DHT22;12020;51.384;6.908;2024-01-16T14:22:09;3.20;99.90
23685;DHT22;12020;51.384;6.908;2024-01-16T14:24:35;3.50;99.90
23685;DHT22;12020;51.384;6.908;2024-01-16T14:27:04;3.20;99.90
23685;DHT22;12020;51.384;6.908;2024-01-16T14:29:31;3.20;99.90
23685;DHT22;12020;51.384;6.908;2024-01-16T14:31:59;3.20;99.90
23685;DHT22;12020;51.384;6.908;2024-01-16T14:34:27;3.10;99.90
23685;DHT22;12020;51.384;6.908;2024-01-16T14:36:53;3.20;99.90
23685;DHT22;12020;51.384;6.908;2024-01-16T14:39:19;3.10;99.90
23685;DHT22;12020;51.384;6.908;2024-01-16T14:41:50;3.10;99.90
23685;DHT22;12020;51.384;6.908;2024-01-16T14:44:17;3.00;99.90
23685;DHT22;12020;51.384;6.908;2024-01-16T14:46:43;3.10;99.90
23685;DHT22;12020;51.384;6.908;2024-01-16T14:49:09;3.00;99.90
23685;DHT22;12020;51.384;6.908;2024-01-16T14:51:35;3.10;99.90
23685;DHT22;12020;51.384;6.908;2024-01-16T14:54:00;3.00;99.90
23685;DHT22;12020;51.384;6.908;2024-01-16T14:56:27;3.00;99.90
23685;DHT22;12020;51.384;6.908;2024-01-16T14:58:53;3.10;99.90
23685;DHT22;12020;51.384;6.908;2024-01-16T15:01:19;2.90;99.90
23685;DHT22;12020;51.384;6.908;2024-01-16T15:03:45;2.80;99.90
23685;DHT22;12020;51.384;6.908;2024-01-16T15:06:11;2.80;99.90
23685;DHT22;12020;51.384;6.908;2024-01-16T15:08:38;2.80;99.90
23685;DHT22;12020;51.384;6.908;2024-01-16T15:11:04;2.90;99.90
23685;DHT22;12020;51.384;6.908;2024-01-16T15:13:31;2.90;99.90
23685;DHT22;12020;51.384;6.908;2024-01-16T15:16:07;2.80;99.90
23685;DHT22;12020;51.384;6.908;2024-01-16T15:21:37;2.70;99.90
23685;DHT22;12020;51.384;6.908;2024-01-16T15:24:04;2.70;99.90
23685;DHT22;12020;51.384;6.908;2024-01-16T15:26:30;2.60;99.90
23685;DHT22;12020;51.384;6.908;2024-01-16T15:28:58;2.50;99.90
23685;DHT22;12020;51.384;6.908;2024-01-16T15:31:23;2.40;99.90
23685;DHT22;12020;51.384;6.908;2024-01-16T15:33:49;2.50;99.90
23685;DHT22;12020;51.384;6.908;2024-01-16T15:36:14;2.30;99.90
23685;DHT22;12020;51.384;6.908;2024-01-16T15:38:47;2.40;99.90
23685;DHT22;12020;51.384;6.908;2024-01-16T15:41:14;2.20;99.90
23685;DHT22;12020;51.384;6.908;2024-01-16T15:43:39;2.20;99.90
23685;DHT22;12020;51.384;6.908;2024-01-16T15:46:05;2.50;99.90
23685;DHT22;12020;51.384;6.908;2024-01-16T15:51:40;2.10;99.90
23685;DHT22;12020;51.384;6.908;2024-01-16T17:38:51;1.00;99.90
23685;DHT22;12020;51.384;6.908;2024-01-16T17:41:21;0.90;99.90
23685;DHT22;12020;51.384;6.908;2024-01-16T17:43:52;0.80;99.90
23685;DHT22;12020;51.384;6.908;2024-01-16T17:46:41;0.90;99.90
23685;DHT22;12020;51.384;6.908;2024-01-16T17:49:08;0.80;99.90
23685;DHT22;12020;51.384;6.908;2024-01-16T17:51:34;0.80;99.90
23685;DHT22;12020;51.384;6.908;2024-01-16T17:54:00;0.80;99.90
23685;DHT22;12020;51.384;6.908;2024-01-16T17:56:25;0.70;99.90
23685;DHT22;12020;51.384;6.908;2024-01-16T17:58:54;0.70;99.90
23685;DHT22;12020;51.384;6.908;2024-01-16T18:01:23;0.70;99.90
23685;DHT22;12020;51.384;6.908;2024-01-16T18:03:49;0.80;99.90
23685;DHT22;12020;51.384;6.908;2024-01-16T18:06:16;0.80;99.90
23685;DHT22;12020;51.384;6.908;2024-01-16T18:08:42;0.70;99.90
23685;DHT22;12020;51.384;6.908;2024-01-16T18:11:11;0.60;99.90
23685;DHT22;12020;51.384;6.908;2024-01-16T18:13:37;0.60;99.90
23685;DHT22;12020;51.384;6.908;2024-01-16T18:16:33;0.70;99.90
23685;DHT22;12020;51.384;6.908;2024-01-16T18:19:52;0.60;99.90
23685;DHT22;12020;51.384;6.908;2024-01-16T18:22:21;0.60;99.90
23685;DHT22;12020;51.384;6.908;2024-01-16T18:24:50;0.50;99.90
23685;DHT22;12020;51.384;6.908;2024-01-16T18:33:59;0.40;99.90
23685;DHT22;12020;51.384;6.908;2024-01-16T18:36:26;0.40;99.90
23685;DHT22;12020;51.384;6.908;2024-01-16T18:42:32;0.40;99.90
23685;DHT22;12020;51.384;6.908;2024-01-16T18:44:58;0.40;99.90
23685;DHT22;12020;51.384;6.908;2024-01-16T18:47:24;0.40;99.90
23685;DHT22;12020;51.384;6.908;2024-01-16T18:49:51;0.30;99.90
23685;DHT22;12020;51.384;6.908;2024-01-16T18:52:18;0.30;99.90
23685;DHT22;12020;51.384;6.908;2024-01-16T18:54:47;0.30;99.90
23685;DHT22;12020;51.384;6.908;2024-01-16T18:57:53;0.40;99.90
23685;DHT22;12020;51.384;6.908;2024-01-16T19:00:25;0.10;99.90
23685;DHT22;12020;51.384;6.908;2024-01-16T19:03:18;0.20;99.90
23685;DHT22;12020;51.384;6.908;2024-01-16T19:05:46;0.10;99.90
23685;DHT22;12020;51.384;6.908;2024-01-16T22:07:51;-0.60;99.90
23685;DHT22;12020;51.384;6.908;2024-01-16T22:15:28;-0.70;99.90
23685;DHT22;12020;51.384;6.908;2024-01-16T22:18:18;-0.70;99.90
23685;DHT22;12020;51.384;6.908;2024-01-16T22:20:53;-0.70;99.90
23685;DHT22;12020;51.384;6.908;2024-01-16T22:23:19;-0.50;99.90
23685;DHT22;12020;51.384;6.908;2024-01-16T22:25:46;-0.80;99.90
